sensor_id;sensor_type;location;lat;lon;timestamp;temperature;humidity
28171;DHT22;15458;53.346;-1.688;2023-03-24T00:00:08;7.70;99.90
28171;DHT22;15458;53.346;-1.688;2023-03-24T00:02:37;7.70;99.90
28171;DHT22;15458;53.346;-1.688;2023-03-24T00:05:06;7.70;99.90
28171;DHT22;15458;53.346;-1.688;2023-03-24T00:07:32;7.60;99.90
28171;DHT22;15458;53.346;-1.688;2023-03-24T00:09:59;7.60;99.90
28171;DHT22;15458;53.346;-1.688;2023-03-24T00:12:25;7.60;99.90
28171;DHT22;15458;53.346;-1.688;2023-03-24T00:14:51;7.50;99.90
28171;DHT22;15458;53.346;-1.688;2023-03-24T00:17:20;7.50;99.90
28171;DHT22;15458;53.346;-1.688;2023-03-24T00:19:50;7.40;99.90
28171;DHT22;15458;53.346;-1.688;2023-03-24T00:22:16;7.40;99.90
28171;DHT22;15458;53.346;-1.688;2023-03-24T00:24:41;7.30;99.90
28171;DHT22;15458;53.346;-1.688;2023-03-24T00:27:11;7.30;99.90
28171;DHT22;15458;53.346;-1.688;2023-03-24T00:29:42;7.30;99.90
28171;DHT22;15458;53.346;-1.688;2023-03-24T00:32:08;7.20;99.90
28171;DHT22;15458;53.346;-1.688;2023-03-24T00:34:33;7.20;99.90
28171;DHT22;15458;53.346;-1.688;2023-03-24T00:37:03;7.20;99.90
28171;DHT22;15458;53.346;-1.688;2023-03-24T00:39:29;7.20;99.90
28171;DHT22;15458;53.346;-1.688;2023-03-24T00:41:55;7.10;99.90
28171;DHT22;15458;53.346;-1.688;2023-03-24T00:44:23;7.10;99.90
28171;DHT22;15458;53.346;-1.688;2023-03-24T00:46:51;7.10;99.90
28171;DHT22;15458;53.346;-1.688;2023-03-24T00:49:25;7.10;99.90
28171;DHT22;15458;53.346;-1.688;2023-03-24T00:52:08;7.10;99.90
28171;DHT22;15458;53.346;-1.688;2023-03-24T00:54:35;7.00;99.90
28171;DHT22;15458;53.346;-1.688;2023-03-24T00:57:06;7.00;99.90
28171;DHT22;15458;53.346;-1.688;2023-03-24T00:59:32;7.00;99.90
28171;DHT22;15458;53.346;-1.688;2023-03-24T01:02:07;7.00;99.90
28171;DHT22;15458;53.346;-1.688;2023-03-24T01:04:37;7.00;99.90
28171;DHT22;15458;53.346;-1.688;2023-03-24T01:07:04;7.00;99.90
28171;DHT22;15458;53.346;-1.688;2023-03-24T01:09:33;7.00;99.90
28171;DHT22;15458;53.346;-1.688;2023-03-24T01:12:01;7.00;99.90
28171;DHT22;15458;53.346;-1.688;2023-03-24T01:14:31;7.00;99.90
28171;DHT22;15458;53.346;-1.688;2023-03-24T01:16:58;7.00;99.90
28171;DHT22;15458;53.346;-1.688;2023-03-24T01:19:25;7.00;99.90
28171;DHT22;15458;53.346;-1.688;2023-03-24T01:21:51;7.00;99.90
28171;DHT22;15458;53.346;-1.688;2023-03-24T01:24:22;7.00;99.90
28171;DHT22;15458;53.346;-1.688;2023-03-24T01:26:50;7.00;99.90
28171;DHT22;15458;53.346;-1.688;2023-03-24T01:29:16;6.90;99.90
28171;DHT22;15458;53.346;-1.688;2023-03-24T01:31:41;6.90;99.90
28171;DHT22;15458;53.346;-1.688;2023-03-24T01:34:07;6.90;99.90
28171;DHT22;15458;53.346;-1.688;2023-03-24T01:36:33;6.80;99.90
28171;DHT22;15458;53.346;-1.688;2023-03-24T01:38:58;6.80;99.90
28171;DHT22;15458;53.346;-1.688;2023-03-24T01:41:35;6.80;99.90
28171;DHT22;15458;53.346;-1.688;2023-03-24T01:44:29;6.80;99.90
28171;DHT22;15458;53.346;-1.688;2023-03-24T01:46:56;6.80;99.90
28171;DHT22;15458;53.346;-1.688;2023-03-24T01:49:24;6.80;99.90
28171;DHT22;15458;53.346;-1.688;2023-03-24T01:51:54;6.80;99.90
28171;DHT22;15458;53.346;-1.688;2023-03-24T01:54:33;6.80;99.90
28171;DHT22;15458;53.346;-1.688;2023-03-24T01:57:16;6.80;99.90
28171;DHT22;15458;53.346;-1.688;2023-03-24T01:59:46;6.80;99.90
28171;DHT22;15458;53.346;-1.688;2023-03-24T02:02:13;6.70;99.90
28171;DHT22;15458;53.346;-1.688;2023-03-24T02:04:45;6.70;99.90
28171;DHT22;15458;53.346;-1.688;2023-03-24T02:07:27;6.70;99.90
28171;DHT22;15458;53.346;-1.688;2023-03-24T02:09:54;6.70;99.90
28171;DHT22;15458;53.346;-1.688;2023-03-24T02:12:20;6.70;99.90
28171;DHT22;15458;53.346;-1.688;2023-03-24T02:14:45;6.70;99.90
28171;DHT22;15458;53.346;-1.688;2023-03-24T02:35:11;6.60;99.90
28171;DHT22;15458;53.346;-1.688;2023-03-24T02:43:48;6.70;99.90
28171;DHT22;15458;53.346;-1.688;2023-03-24T02:49:21;6.70;99.90
28171;DHT22;15458;53.346;-1.688;2023-03-24T03:03:17;6.70;99.90
28171;DHT22;15458;53.346;-1.688;2023-03-24T03:05:54;6.70;99.90
28171;DHT22;15458;53.346;-1.688;2023-03-24T03:08:24;6.70;99.90
28171;DHT22;15458;53.346;-1.688;2023-03-24T03:10:51;6.70;99.90
28171;DHT22;15458;53.346;-1.688;2023-03-24T03:13:24;6.70;99.90
28171;DHT22;15458;53.346;-1.688;2023-03-24T03:15:55;6.70;99.90
28171;DHT22;15458;53.346;-1.688;2023-03-24T03:18:42;6.70;99.90
28171;DHT22;15458;53.346;-1.688;2023-03-24T03:21:15;6.70;99.90
28171;DHT22;15458;53.346;-1.688;2023-03-24T03:24:02;6.70;99.90
28171;DHT22;15458;53.346;-1.688;2023-03-24T03:26:31;6.70;99.90
28171;DHT22;15458;53.346;-1.688;2023-03-24T03:29:18;6.70;99.90
28171;DHT22;15458;53.346;-1.688;2023-03-24T03:31:57;6.70;99.90
28171;DHT22;15458;53.346;-1.688;2023-03-24T03:34:51;6.70;99.90
28171;DHT22;15458;53.346;-1.688;2023-03-24T03:40:35;6.70;99.90
28171;DHT22;15458;53.346;-1.688;2023-03-24T03:43:03;6.70;99.90
28171;DHT22;15458;53.346;-1.688;2023-03-24T03:45:29;6.80;99.90
28171;DHT22;15458;53.346;-1.688;2023-03-24T03:47:58;6.80;99.90
28171;DHT22;15458;53.346;-1.688;2023-03-24T03:50:24;6.80;99.90
28171;DHT22;15458;53.346;-1.688;2023-03-24T03:52:50;6.80;99.90
28171;DHT22;15458;53.346;-1.688;2023-03-24T03:55:17;6.80;99.90
28171;DHT22;15458;53.346;-1.688;2023-03-24T03:57:47;6.80;99.90
28171;DHT22;15458;53.346;-1.688;2023-03-24T04:00:20;6.80;99.90
28171;DHT22;15458;53.346;-1.688;2023-03-24T04:05:25;6.90;99.90
28171;DHT22;15458;53.346;-1.688;2023-03-24T04:10:40;6.80;99.90
28171;DHT22;15458;53.346;-1.688;2023-03-24T04:16:33;6.80;99.90
28171;DHT22;15458;53.346;-1.688;2023-03-24T04:22:01;6.80;99.90
28171;DHT22;15458;53.346;-1.688;2023-03-24T04:24:49;6.80;99.90
28171;DHT22;15458;53.346;-1.688;2023-03-24T04:30:38;6.80;99.90
28171;DHT22;15458;53.346;-1.688;2023-03-24T04:33:16;6.80;99.90
28171;DHT22;15458;53.346;-1.688;2023-03-24T04:35:57;6.80;99.90
28171;DHT22;15458;53.346;-1.688;2023-03-24T04:38:26;6.80;99.90
28171;DHT22;15458;53.346;-1.688;2023-03-24T04:40:54;6.80;99.90
28171;DHT22;15458;53.346;-1.688;2023-03-24T04:43:24;6.80;99.90
28171;DHT22;15458;53.346;-1.688;2023-03-24T04:45:52;6.80;99.90
28171;DHT22;15458;53.346;-1.688;2023-03-24T04:48:23;6.80;99.90
28171;DHT22;15458;53.346;-1.688;2023-03-24T04:50:56;6.80;99.90
28171;DHT22;15458;53.346;-1.688;2023-03-24T04:53:22;6.80;99.90
28171;DHT22;15458;53.346;-1.688;2023-03-24T04:56:50;6.80;99.90
28171;DHT22;15458;53.346;-1.688;2023-03-24T04:59:17;6.80;99.90
28171;DHT22;15458;53.346;-1.688;2023-03-24T05:01:43;6.80;99.90
28171;DHT22;15458;53.346;-1.688;2023-03-24T05:04:20;6.80;99.90
28171;DHT22;15458;53.346;-1.688;2023-03-24T05:06:46;6.80;99.90
28171;DHT22;15458;53.346;-1.688;2023-03-24T05:09:14;6.80;99.90
28171;DHT22;15458;53.346;-1.688;2023-03-24T05:11:44;6.70;99.90
28171;DHT22;15458;53.346;-1.688;2023-03-24T05:14:10;6.80;99.90
28171;DHT22;15458;53.346;-1.688;2023-03-24T05:16:36;6.80;99.90
28171;DHT22;15458;53.346;-1.688;2023-03-24T05:19:02;6.80;99.90
28171;DHT22;15458;53.346;-1.688;2023-03-24T05:21:30;6.80;99.90
28171;DHT22;15458;53.346;-1.688;2023-03-24T05:23:56;6.70;99.90
28171;DHT22;15458;53.346;-1.688;2023-03-24T05:26:21;6.70;99.90
28171;DHT22;15458;53.346;-1.688;2023-03-24T05:28:47;6.70;99.90
28171;DHT22;15458;53.346;-1.688;2023-03-24T05:31:13;6.60;99.90
28171;DHT22;15458;53.346;-1.688;2023-03-24T05:33:38;6.60;99.90
28171;DHT22;15458;53.346;-1.688;2023-03-24T05:36:04;6.50;99.90
28171;DHT22;15458;53.346;-1.688;2023-03-24T05:38:32;6.50;99.90
28171;DHT22;15458;53.346;-1.688;2023-03-24T05:40:58;6.50;99.90
28171;DHT22;15458;53.346;-1.688;2023-03-24T05:43:25;6.50;99.90
28171;DHT22;15458;53.346;-1.688;2023-03-24T05:46:10;6.50;99.90
28171;DHT22;15458;53.346;-1.688;2023-03-24T05:48:36;6.50;99.90
28171;DHT22;15458;53.346;-1.688;2023-03-24T05:51:01;6.50;99.90
28171;DHT22;15458;53.346;-1.688;2023-03-24T05:53:29;6.50;99.90
28171;DHT22;15458;53.346;-1.688;2023-03-24T05:55:55;6.50;99.90
28171;DHT22;15458;53.346;-1.688;2023-03-24T05:58:23;6.60;99.90
28171;DHT22;15458;53.346;-1.688;2023-03-24T06:00:48;6.60;99.90
28171;DHT22;15458;53.346;-1.688;2023-03-24T06:03:15;6.60;99.90
28171;DHT22;15458;53.346;-1.688;2023-03-24T06:05:41;6.60;99.90
28171;DHT22;15458;53.346;-1.688;2023-03-24T06:08:10;6.60;99.90
28171;DHT22;15458;53.346;-1.688;2023-03-24T06:10:36;6.70;99.90
28171;DHT22;15458;53.346;-1.688;2023-03-24T06:13:02;6.70;99.90
28171;DHT22;15458;53.346;-1.688;2023-03-24T06:15:27;6.70;99.90
28171;DHT22;15458;53.346;-1.688;2023-03-24T06:17:55;6.70;99.90
28171;DHT22;15458;53.346;-1.688;2023-03-24T06:20:21;6.80;99.90
28171;DHT22;15458;53.346;-1.688;2023-03-24T06:22:47;6.80;99.90
28171;DHT22;15458;53.346;-1.688;2023-03-24T06:25:15;6.80;99.90
28171;DHT22;15458;53.346;-1.688;2023-03-24T06:27:42;6.80;99.90
28171;DHT22;15458;53.346;-1.688;2023-03-24T06:30:14;6.80;99.90
28171;DHT22;15458;53.346;-1.688;2023-03-24T06:32:41;6.80;99.90
28171;DHT22;15458;53.346;-1.688;2023-03-24T06:35:11;6.80;99.90
28171;DHT22;15458;53.346;-1.688;2023-03-24T06:37:37;6.80;99.90
28171;DHT22;15458;53.346;-1.688;2023-03-24T06:40:03;6.90;99.90
28171;DHT22;15458;53.346;-1.688;2023-03-24T06:42:34;6.90;99.90
28171;DHT22;15458;53.346;-1.688;2023-03-24T06:45:00;6.90;99.90
28171;DHT22;15458;53.346;-1.688;2023-03-24T06:47:26;6.90;99.90
28171;DHT22;15458;53.346;-1.688;2023-03-24T06:49:51;7.00;99.90
28171;DHT22;15458;53.346;-1.688;2023-03-24T06:52:17;7.00;99.90
28171;DHT22;15458;53.346;-1.688;2023-03-24T06:54:43;7.00;99.90
28171;DHT22;15458;53.346;-1.688;2023-03-24T06:57:10;7.00;99.90
28171;DHT22;15458;53.346;-1.688;2023-03-24T06:59:36;7.00;99.90
28171;DHT22;15458;53.346;-1.688;2023-03-24T07:02:03;7.00;99.90
28171;DHT22;15458;53.346;-1.688;2023-03-24T07:04:30;7.00;99.90
28171;DHT22;15458;53.346;-1.688;2023-03-24T07:07:01;7.00;99.90
28171;DHT22;15458;53.346;-1.688;2023-03-24T07:09:29;7.00;99.90
28171;DHT22;15458;53.346;-1.688;2023-03-24T07:11:56;7.10;99.90
28171;DHT22;15458;53.346;-1.688;2023-03-24T07:14:25;7.10;99.90
28171;DHT22;15458;53.346;-1.688;2023-03-24T07:16:54;7.10;99.90
28171;DHT22;15458;53.346;-1.688;2023-03-24T07:19:21;7.10;99.90
28171;DHT22;15458;53.346;-1.688;2023-03-24T07:21:49;7.10;99.90
28171;DHT22;15458;53.346;-1.688;2023-03-24T07:24:19;7.10;99.90
28171;DHT22;15458;53.346;-1.688;2023-03-24T07:26:44;7.10;99.90
28171;DHT22;15458;53.346;-1.688;2023-03-24T07:29:11;7.10;99.90
28171;DHT22;15458;53.346;-1.688;2023-03-24T07:31:39;7.10;99.90
28171;DHT22;15458;53.346;-1.688;2023-03-24T07:34:07;7.10;99.90
28171;DHT22;15458;53.346;-1.688;2023-03-24T07:36:33;7.20;99.90
28171;DHT22;15458;53.346;-1.688;2023-03-24T07:39:00;7.20;99.90
28171;DHT22;15458;53.346;-1.688;2023-03-24T07:41:29;7.20;99.90
28171;DHT22;15458;53.346;-1.688;2023-03-24T07:43:55;7.20;99.90
28171;DHT22;15458;53.346;-1.688;2023-03-24T07:46:22;7.20;99.90
28171;DHT22;15458;53.346;-1.688;2023-03-24T07:48:53;7.30;99.90
28171;DHT22;15458;53.346;-1.688;2023-03-24T07:51:22;7.30;99.90
28171;DHT22;15458;53.346;-1.688;2023-03-24T07:53:47;7.30;99.90
28171;DHT22;15458;53.346;-1.688;2023-03-24T07:56:14;7.30;99.90
28171;DHT22;15458;53.346;-1.688;2023-03-24T07:58:41;7.30;99.90
28171;DHT22;15458;53.346;-1.688;2023-03-24T08:01:08;7.40;99.90
28171;DHT22;15458;53.346;-1.688;2023-03-24T08:03:37;7.40;99.90
28171;DHT22;15458;53.346;-1.688;2023-03-24T08:06:03;7.40;99.90
28171;DHT22;15458;53.346;-1.688;2023-03-24T08:08:30;7.50;99.90
28171;DHT22;15458;53.346;-1.688;2023-03-24T08:10:56;7.60;99.90
28171;DHT22;15458;53.346;-1.688;2023-03-24T08:13:22;7.70;99.90
28171;DHT22;15458;53.346;-1.688;2023-03-24T08:15:48;7.70;99.90
28171;DHT22;15458;53.346;-1.688;2023-03-24T08:18:14;7.80;99.90
28171;DHT22;15458;53.346;-1.688;2023-03-24T08:20:40;7.80;99.90
28171;DHT22;15458;53.346;-1.688;2023-03-24T08:23:06;7.90;99.90
28171;DHT22;15458;53.346;-1.688;2023-03-24T08:25:33;8.00;99.90
28171;DHT22;15458;53.346;-1.688;2023-03-24T08:28:00;8.00;99.90
28171;DHT22;15458;53.346;-1.688;2023-03-24T08:30:25;8.10;99.90
28171;DHT22;15458;53.346;-1.688;2023-03-24T08:32:58;8.20;99.90
28171;DHT22;15458;53.346;-1.688;2023-03-24T08:35:30;8.20;99.90
28171;DHT22;15458;53.346;-1.688;2023-03-24T08:37:56;8.30;99.90
28171;DHT22;15458;53.346;-1.688;2023-03-24T08:40:25;8.40;99.90
28171;DHT22;15458;53.346;-1.688;2023-03-24T08:42:54;8.50;99.90
28171;DHT22;15458;53.346;-1.688;2023-03-24T08:45:21;8.50;99.90
28171;DHT22;15458;53.346;-1.688;2023-03-24T08:47:52;8.50;99.90
28171;DHT22;15458;53.346;-1.688;2023-03-24T08:50:19;8.60;99.90
28171;DHT22;15458;53.346;-1.688;2023-03-24T08:52:51;8.60;99.90
28171;DHT22;15458;53.346;-1.688;2023-03-24T08:55:18;8.60;99.90
28171;DHT22;15458;53.346;-1.688;2023-03-24T08:57:44;8.60;99.90
28171;DHT22;15458;53.346;-1.688;2023-03-24T09:00:11;8.60;99.90
28171;DHT22;15458;53.346;-1.688;2023-03-24T09:02:41;8.60;99.90
28171;DHT22;15458;53.346;-1.688;2023-03-24T09:05:07;8.50;99.90
28171;DHT22;15458;53.346;-1.688;2023-03-24T09:07:33;8.60;99.90
28171;DHT22;15458;53.346;-1.688;2023-03-24T09:09:59;8.60;99.90
28171;DHT22;15458;53.346;-1.688;2023-03-24T09:12:25;8.70;99.90
28171;DHT22;15458;53.346;-1.688;2023-03-24T09:14:51;8.80;99.90
28171;DHT22;15458;53.346;-1.688;2023-03-24T09:17:17;9.00;99.90
28171;DHT22;15458;53.346;-1.688;2023-03-24T09:19:43;9.10;99.90
28171;DHT22;15458;53.346;-1.688;2023-03-24T09:22:10;9.10;99.90
28171;DHT22;15458;53.346;-1.688;2023-03-24T09:24:36;9.20;99.90
28171;DHT22;15458;53.346;-1.688;2023-03-24T09:27:02;9.30;99.90
28171;DHT22;15458;53.346;-1.688;2023-03-24T09:29:29;9.30;99.90
28171;DHT22;15458;53.346;-1.688;2023-03-24T09:31:56;9.40;99.90
28171;DHT22;15458;53.346;-1.688;2023-03-24T09:34:25;9.60;99.90
28171;DHT22;15458;53.346;-1.688;2023-03-24T09:36:50;9.70;99.90
28171;DHT22;15458;53.346;-1.688;2023-03-24T09:39:16;9.80;99.90
28171;DHT22;15458;53.346;-1.688;2023-03-24T09:41:43;10.00;99.90
28171;DHT22;15458;53.346;-1.688;2023-03-24T09:44:30;10.00;99.90
28171;DHT22;15458;53.346;-1.688;2023-03-24T09:47:27;10.10;99.90
28171;DHT22;15458;53.346;-1.688;2023-03-24T09:49:57;10.20;99.90
28171;DHT22;15458;53.346;-1.688;2023-03-24T09:52:32;10.30;99.90
28171;DHT22;15458;53.346;-1.688;2023-03-24T09:54:59;10.50;99.90
28171;DHT22;15458;53.346;-1.688;2023-03-24T09:57:35;10.70;99.90
28171;DHT22;15458;53.346;-1.688;2023-03-24T10:02:41;10.90;99.90
28171;DHT22;15458;53.346;-1.688;2023-03-24T10:08:34;11.10;99.90
28171;DHT22;15458;53.346;-1.688;2023-03-24T10:11:36;11.30;99.90
28171;DHT22;15458;53.346;-1.688;2023-03-24T10:14:27;11.50;99.90
28171;DHT22;15458;53.346;-1.688;2023-03-24T10:20:32;11.60;99.90
28171;DHT22;15458;53.346;-1.688;2023-03-24T10:25:20;11.80;99.90
28171;DHT22;15458;53.346;-1.688;2023-03-24T10:27:56;11.90;99.90
28171;DHT22;15458;53.346;-1.688;2023-03-24T10:30:27;12.00;99.90
28171;DHT22;15458;53.346;-1.688;2023-03-24T10:32:56;12.10;99.90
28171;DHT22;15458;53.346;-1.688;2023-03-24T10:35:50;12.20;99.90
28171;DHT22;15458;53.346;-1.688;2023-03-24T10:38:21;12.40;99.90
28171;DHT22;15458;53.346;-1.688;2023-03-24T10:40:48;12.50;99.90
28171;DHT22;15458;53.346;-1.688;2023-03-24T10:43:18;12.60;99.90
28171;DHT22;15458;53.346;-1.688;2023-03-24T10:45:47;12.80;99.90
28171;DHT22;15458;53.346;-1.688;2023-03-24T10:48:15;12.90;99.90
28171;DHT22;15458;53.346;-1.688;2023-03-24T10:50:58;12.90;99.60
28171;DHT22;15458;53.346;-1.688;2023-03-24T10:53:24;13.00;99.70
28171;DHT22;15458;53.346;-1.688;2023-03-24T10:55:50;13.00;98.80
28171;DHT22;15458;53.346;-1.688;2023-03-24T10:58:28;13.00;98.60
28171;DHT22;15458;53.346;-1.688;2023-03-24T11:00:56;13.00;98.70
28171;DHT22;15458;53.346;-1.688;2023-03-24T11:03:31;12.90;98.10
28171;DHT22;15458;53.346;-1.688;2023-03-24T11:06:00;12.90;98.40
28171;DHT22;15458;53.346;-1.688;2023-03-24T11:08:35;12.90;97.70
28171;DHT22;15458;53.346;-1.688;2023-03-24T11:11:29;13.10;98.00
28171;DHT22;15458;53.346;-1.688;2023-03-24T11:13:57;13.10;97.40
28171;DHT22;15458;53.346;-1.688;2023-03-24T11:16:42;13.10;97.00
28171;DHT22;15458;53.346;-1.688;2023-03-24T11:19:22;13.10;97.70
28171;DHT22;15458;53.346;-1.688;2023-03-24T11:21:50;13.10;97.90
28171;DHT22;15458;53.346;-1.688;2023-03-24T11:24:18;13.00;97.20
28171;DHT22;15458;53.346;-1.688;2023-03-24T11:29:21;12.70;98.00
28171;DHT22;15458;53.346;-1.688;2023-03-24T11:32:00;12.60;98.30
28171;DHT22;15458;53.346;-1.688;2023-03-24T11:34:37;12.50;99.00
28171;DHT22;15458;53.346;-1.688;2023-03-24T11:37:18;12.80;99.40
28171;DHT22;15458;53.346;-1.688;2023-03-24T11:42:41;13.30;96.50
28171;DHT22;15458;53.346;-1.688;2023-03-24T11:47:54;13.60;94.20
28171;DHT22;15458;53.346;-1.688;2023-03-24T11:50:28;13.80;92.80
28171;DHT22;15458;53.346;-1.688;2023-03-24T11:55:59;14.10;92.00
28171;DHT22;15458;53.346;-1.688;2023-03-24T11:58:47;14.30;91.40
28171;DHT22;15458;53.346;-1.688;2023-03-24T12:03:53;14.10;90.70
28171;DHT22;15458;53.346;-1.688;2023-03-24T12:06:25;14.00;90.70
28171;DHT22;15458;53.346;-1.688;2023-03-24T12:17:36;14.10;91.30
28171;DHT22;15458;53.346;-1.688;2023-03-24T12:26:03;14.80;89.30
28171;DHT22;15458;53.346;-1.688;2023-03-24T12:39:11;15.60;83.90
28171;DHT22;15458;53.346;-1.688;2023-03-24T12:44:14;15.70;78.00
28171;DHT22;15458;53.346;-1.688;2023-03-24T12:51:47;15.30;78.50
28171;DHT22;15458;53.346;-1.688;2023-03-24T12:54:28;14.90;79.70
28171;DHT22;15458;53.346;-1.688;2023-03-24T12:57:07;14.80;80.30
28171;DHT22;15458;53.346;-1.688;2023-03-24T13:00:06;14.60;81.00
28171;DHT22;15458;53.346;-1.688;2023-03-24T13:02:59;14.50;82.30
28171;DHT22;15458;53.346;-1.688;2023-03-24T13:05:31;14.60;83.40
28171;DHT22;15458;53.346;-1.688;2023-03-24T13:08:03;14.80;84.20
28171;DHT22;15458;53.346;-1.688;2023-03-24T13:10:35;14.80;83.60
28171;DHT22;15458;53.346;-1.688;2023-03-24T13:13:21;14.90;82.80
28171;DHT22;15458;53.346;-1.688;2023-03-24T13:18:38;15.40;83.30
28171;DHT22;15458;53.346;-1.688;2023-03-24T13:21:16;15.40;82.50
28171;DHT22;15458;53.346;-1.688;2023-03-24T13:24:07;15.50;81.60
28171;DHT22;15458;53.346;-1.688;2023-03-24T13:32:08;14.70;79.80
28171;DHT22;15458;53.346;-1.688;2023-03-24T13:34:39;14.30;80.50
28171;DHT22;15458;53.346;-1.688;2023-03-24T13:37:19;14.10;81.60
28171;DHT22;15458;53.346;-1.688;2023-03-24T13:39:56;13.80;82.60
28171;DHT22;15458;53.346;-1.688;2023-03-24T13:42:30;13.50;83.10
28171;DHT22;15458;53.346;-1.688;2023-03-24T13:44:58;13.30;85.10
28171;DHT22;15458;53.346;-1.688;2023-03-24T13:47:25;13.00;87.00
28171;DHT22;15458;53.346;-1.688;2023-03-24T13:49:58;12.70;88.90
28171;DHT22;15458;53.346;-1.688;2023-03-24T13:52:38;12.40;90.50
28171;DHT22;15458;53.346;-1.688;2023-03-24T13:55:29;12.00;92.00
28171;DHT22;15458;53.346;-1.688;2023-03-24T13:58:05;11.40;93.60
28171;DHT22;15458;53.346;-1.688;2023-03-24T14:04:26;10.90;96.40
28171;DHT22;15458;53.346;-1.688;2023-03-24T14:06:56;10.70;98.00
28171;DHT22;15458;53.346;-1.688;2023-03-24T14:09:31;10.70;98.90
28171;DHT22;15458;53.346;-1.688;2023-03-24T14:14:29;11.60;99.90
28171;DHT22;15458;53.346;-1.688;2023-03-24T14:19:44;12.60;99.90
28171;DHT22;15458;53.346;-1.688;2023-03-24T14:22:39;13.00;99.30
28171;DHT22;15458;53.346;-1.688;2023-03-24T14:25:25;13.10;97.10
28171;DHT22;15458;53.346;-1.688;2023-03-24T14:28:18;13.20;95.70
28171;DHT22;15458;53.346;-1.688;2023-03-24T14:31:18;13.40;95.90
28171;DHT22;15458;53.346;-1.688;2023-03-24T14:38:56;14.20;93.80
28171;DHT22;15458;53.346;-1.688;2023-03-24T14:41:33;14.40;92.30
28171;DHT22;15458;53.346;-1.688;2023-03-24T14:44:03;14.50;91.90
28171;DHT22;15458;53.346;-1.688;2023-03-24T14:46:45;14.60;91.00
28171;DHT22;15458;53.346;-1.688;2023-03-24T14:49:17;14.70;90.20
28171;DHT22;15458;53.346;-1.688;2023-03-24T14:56:57;15.00;88.30
28171;DHT22;15458;53.346;-1.688;2023-03-24T14:59:45;15.00;86.70
28171;DHT22;15458;53.346;-1.688;2023-03-24T15:02:35;14.70;85.40
28171;DHT22;15458;53.346;-1.688;2023-03-24T15:10:46;13.90;87.20
28171;DHT22;15458;53.346;-1.688;2023-03-24T15:15:51;13.90;88.80
28171;DHT22;15458;53.346;-1.688;2023-03-24T15:18:17;13.80;88.90
28171;DHT22;15458;53.346;-1.688;2023-03-24T15:20:50;13.60;88.90
28171;DHT22;15458;53.346;-1.688;2023-03-24T15:23:22;13.50;90.00
28171;DHT22;15458;53.346;-1.688;2023-03-24T15:25:48;13.40;90.10
28171;DHT22;15458;53.346;-1.688;2023-03-24T15:28:24;13.50;90.60
28171;DHT22;15458;53.346;-1.688;2023-03-24T15:30:51;13.60;90.60
28171;DHT22;15458;53.346;-1.688;2023-03-24T15:33:18;13.80;90.90
28171;DHT22;15458;53.346;-1.688;2023-03-24T15:35:45;13.90;90.70
28171;DHT22;15458;53.346;-1.688;2023-03-24T15:38:19;13.80;90.50
28171;DHT22;15458;53.346;-1.688;2023-03-24T15:40:59;13.60;90.50
28171;DHT22;15458;53.346;-1.688;2023-03-24T15:43:25;13.50;90.70
28171;DHT22;15458;53.346;-1.688;2023-03-24T15:46:05;13.50;91.10
28171;DHT22;15458;53.346;-1.688;2023-03-24T15:48:57;13.60;91.00
28171;DHT22;15458;53.346;-1.688;2023-03-24T15:52:00;13.90;90.50
28171;DHT22;15458;53.346;-1.688;2023-03-24T15:54:35;14.10;89.50
28171;DHT22;15458;53.346;-1.688;2023-03-24T15:57:21;14.30;88.70
28171;DHT22;15458;53.346;-1.688;2023-03-24T16:00:12;14.40;87.90
28171;DHT22;15458;53.346;-1.688;2023-03-24T16:02:53;14.60;87.60
28171;DHT22;15458;53.346;-1.688;2023-03-24T16:05:26;14.60;87.10
28171;DHT22;15458;53.346;-1.688;2023-03-24T16:10:34;14.90;87.20
28171;DHT22;15458;53.346;-1.688;2023-03-24T16:13:19;15.00;86.20
28171;DHT22;15458;53.346;-1.688;2023-03-24T16:15:51;15.00;83.90
28171;DHT22;15458;53.346;-1.688;2023-03-24T16:18:20;14.90;83.40
28171;DHT22;15458;53.346;-1.688;2023-03-24T16:20:47;14.70;84.50
28171;DHT22;15458;53.346;-1.688;2023-03-24T16:23:16;14.70;84.60
28171;DHT22;15458;53.346;-1.688;2023-03-24T16:25:42;14.50;83.80
28171;DHT22;15458;53.346;-1.688;2023-03-24T16:28:11;14.40;84.40
28171;DHT22;15458;53.346;-1.688;2023-03-24T16:30:41;14.30;84.00
28171;DHT22;15458;53.346;-1.688;2023-03-24T16:33:07;14.20;83.60
28171;DHT22;15458;53.346;-1.688;2023-03-24T16:35:34;14.00;83.80
28171;DHT22;15458;53.346;-1.688;2023-03-24T16:38:00;14.00;84.70
28171;DHT22;15458;53.346;-1.688;2023-03-24T16:40:39;13.80;84.90
28171;DHT22;15458;53.346;-1.688;2023-03-24T16:43:05;13.60;85.60
28171;DHT22;15458;53.346;-1.688;2023-03-24T16:45:31;13.30;86.30
28171;DHT22;15458;53.346;-1.688;2023-03-24T16:47:58;13.20;87.60
28171;DHT22;15458;53.346;-1.688;2023-03-24T16:50:37;13.00;88.50
28171;DHT22;15458;53.346;-1.688;2023-03-24T16:53:03;12.90;89.70
28171;DHT22;15458;53.346;-1.688;2023-03-24T16:55:37;12.80;90.20
28171;DHT22;15458;53.346;-1.688;2023-03-24T16:58:03;12.70;90.50
28171;DHT22;15458;53.346;-1.688;2023-03-24T17:00:31;12.60;90.90
28171;DHT22;15458;53.346;-1.688;2023-03-24T17:02:57;12.40;91.20
28171;DHT22;15458;53.346;-1.688;2023-03-24T17:05:30;12.30;91.60
28171;DHT22;15458;53.346;-1.688;2023-03-24T17:07:58;12.20;91.90
28171;DHT22;15458;53.346;-1.688;2023-03-24T17:10:24;12.20;92.20
28171;DHT22;15458;53.346;-1.688;2023-03-24T17:12:53;12.10;92.60
28171;DHT22;15458;53.346;-1.688;2023-03-24T17:15:25;11.90;92.60
28171;DHT22;15458;53.346;-1.688;2023-03-24T17:17:52;11.90;93.00
28171;DHT22;15458;53.346;-1.688;2023-03-24T17:20:18;11.90;93.00
28171;DHT22;15458;53.346;-1.688;2023-03-24T17:22:46;11.90;92.90
28171;DHT22;15458;53.346;-1.688;2023-03-24T17:25:15;11.80;92.90
28171;DHT22;15458;53.346;-1.688;2023-03-24T17:27:41;11.90;93.40
28171;DHT22;15458;53.346;-1.688;2023-03-24T17:30:15;11.90;93.60
28171;DHT22;15458;53.346;-1.688;2023-03-24T17:32:41;11.90;93.70
28171;DHT22;15458;53.346;-1.688;2023-03-24T17:35:10;11.90;93.80
28171;DHT22;15458;53.346;-1.688;2023-03-24T17:37:37;11.80;93.80
28171;DHT22;15458;53.346;-1.688;2023-03-24T17:40:03;11.60;93.70
28171;DHT22;15458;53.346;-1.688;2023-03-24T17:42:35;11.50;94.00
28171;DHT22;15458;53.346;-1.688;2023-03-24T17:45:01;11.40;94.20
28171;DHT22;15458;53.346;-1.688;2023-03-24T17:47:29;11.30;94.20
28171;DHT22;15458;53.346;-1.688;2023-03-24T17:49:54;11.20;94.40
28171;DHT22;15458;53.346;-1.688;2023-03-24T17:52:21;11.10;94.60
28171;DHT22;15458;53.346;-1.688;2023-03-24T17:54:46;11.00;94.80
28171;DHT22;15458;53.346;-1.688;2023-03-24T17:57:12;10.90;95.00
28171;DHT22;15458;53.346;-1.688;2023-03-24T17:59:38;10.80;95.30
28171;DHT22;15458;53.346;-1.688;2023-03-24T18:02:04;10.70;95.60
28171;DHT22;15458;53.346;-1.688;2023-03-24T18:04:32;10.60;95.90
28171;DHT22;15458;53.346;-1.688;2023-03-24T18:06:58;10.50;96.10
28171;DHT22;15458;53.346;-1.688;2023-03-24T18:09:25;10.40;96.30
28171;DHT22;15458;53.346;-1.688;2023-03-24T18:11:51;10.30;96.70
28171;DHT22;15458;53.346;-1.688;2023-03-24T18:14:17;10.20;96.50
28171;DHT22;15458;53.346;-1.688;2023-03-24T18:16:43;10.20;96.90
28171;DHT22;15458;53.346;-1.688;2023-03-24T18:19:09;10.10;97.20
28171;DHT22;15458;53.346;-1.688;2023-03-24T18:21:35;10.00;97.50